createdAt,value
2018-04-10T00:02:16.949Z,57.20
2018-04-10T00:04:44.682Z,57.00
2018-04-10T00:07:19.884Z,58.30
2018-04-10T00:09:56.656Z,58.50
2018-04-10T00:12:31.021Z,58.20
2018-04-10T00:14:58.775Z,59.50
2018-04-10T00:17:30.589Z,59.50
2018-04-10T00:19:58.344Z,55.90
2018-04-10T00:22:26.055Z,57.40
2018-04-10T00:24:53.741Z,58.70
2018-04-10T00:27:21.396Z,59.10
2018-04-10T00:29:49.868Z,59.40
2018-04-10T00:32:21.549Z,57.40
2018-04-10T00:34:49.244Z,57.40
2018-04-10T00:37:33.547Z,59.80
2018-04-10T00:40:08.028Z,59.20
2018-04-10T00:42:35.957Z,60.00
2018-04-10T00:45:03.715Z,57.40
2018-04-10T00:47:31.524Z,57.70
2018-04-10T00:49:59.292Z,59.10
2018-04-10T00:52:28.185Z,58.50
2018-04-10T00:54:55.965Z,58.50
2018-04-10T00:57:23.756Z,58.10
2018-04-10T00:59:55.432Z,57.60
2018-04-10T01:02:24.147Z,58.00
2018-04-10T01:04:51.925Z,58.20
2018-04-10T01:07:20.548Z,58.20
2018-04-10T01:09:48.254Z,58.10
2018-04-10T01:12:15.992Z,58.70
2018-04-10T01:14:45.176Z,57.10
2018-04-10T01:17:12.887Z,59.60
2018-04-10T01:19:40.659Z,58.40
2018-04-10T01:22:08.535Z,57.60
2018-04-10T01:24:36.330Z,59.30
2018-04-10T01:27:04.144Z,58.90
2018-04-10T01:29:31.932Z,58.30
2018-04-10T01:31:59.645Z,58.00
2018-04-10T01:34:27.467Z,57.50
2018-04-10T01:36:55.308Z,57.10
2018-04-10T01:39:23.059Z,57.00
2018-04-10T01:41:50.797Z,57.10
2018-04-10T01:44:18.528Z,57.00
2018-04-10T01:46:46.278Z,58.20
2018-04-10T01:49:14.082Z,58.20
2018-04-10T01:51:41.835Z,57.80
2018-04-10T01:54:09.539Z,57.00
2018-04-10T01:56:37.863Z,56.90
2018-04-10T01:59:05.561Z,56.40
2018-04-10T02:01:34.155Z,56.50
2018-04-10T02:04:02.679Z,57.20
2018-04-10T02:06:31.323Z,56.50
2018-04-10T02:08:59.051Z,57.50
2018-04-10T02:11:26.695Z,57.00
2018-04-10T02:13:54.393Z,56.90
2018-04-10T02:16:22.804Z,56.80
2018-04-10T02:18:50.477Z,56.80
2018-04-10T02:21:18.143Z,56.60
2018-04-10T02:23:46.630Z,56.20
2018-04-10T02:26:15.150Z,56.10
2018-04-10T02:28:42.807Z,56.20
2018-04-10T02:31:11.215Z,56.20
2018-04-10T02:33:38.938Z,56.20
2018-04-10T02:36:06.611Z,56.30
2018-04-10T02:38:34.336Z,56.20
2018-04-10T02:41:02.191Z,56.00
2018-04-10T02:43:29.912Z,56.00
2018-04-10T02:45:57.641Z,56.00
2018-04-10T02:48:25.311Z,56.70
2018-04-10T02:50:53.788Z,56.10
2018-04-10T02:53:21.445Z,56.00
2018-04-10T02:55:49.183Z,56.20
2018-04-10T02:58:16.808Z,56.30
2018-04-10T03:00:46.392Z,56.30
2018-04-10T03:03:14.070Z,56.20
2018-04-10T03:05:42.540Z,56.30
2018-04-10T03:08:10.994Z,56.30
2018-04-10T03:10:38.834Z,56.20
2018-04-10T03:13:06.652Z,56.30
2018-04-10T03:15:34.365Z,56.30
2018-04-10T03:18:02.035Z,56.50
2018-04-10T03:20:29.901Z,56.40
2018-04-10T03:22:58.457Z,56.70
2018-04-10T03:25:26.935Z,56.20
2018-04-10T03:27:54.877Z,56.70
2018-04-10T03:30:22.665Z,56.70
2018-04-10T03:32:50.471Z,56.60
2018-04-10T03:35:18.394Z,56.60
2018-04-10T03:37:46.087Z,56.50
2018-04-10T03:40:13.857Z,56.60
2018-04-10T03:42:41.673Z,56.60
2018-04-10T03:45:09.345Z,56.70
2018-04-10T03:47:37.119Z,56.60
2018-04-10T03:50:04.903Z,56.60
2018-04-10T03:52:32.642Z,56.60
2018-04-10T03:55:00.495Z,56.90
2018-04-10T03:57:28.269Z,56.90
2018-04-10T03:59:56.199Z,56.80
2018-04-10T04:02:24.014Z,56.70
2018-04-10T04:04:51.792Z,56.70
2018-04-10T04:07:19.640Z,56.80
2018-04-10T04:09:47.824Z,56.80
2018-04-10T04:12:15.471Z,56.90
2018-04-10T04:14:43.351Z,56.90
2018-04-10T04:17:23.673Z,57.10
2018-04-10T04:23:08.077Z,56.90
2018-04-10T04:25:35.830Z,57.00
2018-04-10T04:28:04.404Z,57.00
2018-04-10T04:30:32.083Z,57.10
2018-04-10T04:33:00.504Z,57.20
2018-04-10T04:35:28.209Z,57.00
2018-04-10T04:37:58.309Z,56.90
2018-04-10T04:40:26.040Z,57.10
2018-04-10T04:42:53.744Z,57.10
2018-04-10T04:45:25.504Z,57.10
2018-04-10T04:47:54.015Z,57.20
2018-04-10T04:50:21.729Z,57.00
2018-04-10T04:52:49.599Z,57.20
2018-04-10T04:55:17.307Z,57.10
2018-04-10T04:57:52.316Z,57.10
2018-04-10T05:00:20.857Z,57.20
2018-04-10T05:02:48.593Z,57.00
2018-04-10T05:05:16.250Z,57.00
2018-04-10T05:07:43.955Z,56.90
2018-04-10T05:10:11.702Z,57.10
2018-04-10T05:12:39.399Z,56.90
2018-04-10T05:15:07.266Z,56.80
2018-04-10T05:17:36.187Z,56.80
2018-04-10T05:20:03.904Z,56.70
2018-04-10T05:22:34.646Z,56.50
2018-04-10T05:25:02.580Z,56.40
2018-04-10T05:27:30.268Z,56.20
2018-04-10T05:29:58.156Z,55.80
2018-04-10T05:32:25.892Z,55.70
2018-04-10T05:34:58.281Z,55.80
2018-04-10T05:37:27.189Z,55.90
2018-04-10T05:39:59.187Z,55.60
2018-04-10T05:42:35.834Z,55.10
2018-04-10T05:45:03.522Z,54.80
2018-04-10T05:47:31.267Z,54.50
2018-04-10T05:49:58.933Z,53.80
2018-04-10T05:52:26.588Z,53.60
2018-04-10T05:54:54.270Z,53.70
2018-04-10T05:57:21.914Z,54.40
2018-04-10T05:59:49.574Z,54.90
2018-04-10T06:02:17.212Z,55.20
2018-04-10T06:04:44.907Z,55.40
2018-04-10T06:07:13.319Z,55.80
2018-04-10T06:09:40.980Z,55.80
2018-04-10T06:12:08.607Z,55.70
2018-04-10T06:14:36.291Z,55.70
2018-04-10T06:17:03.970Z,56.10
2018-04-10T06:19:31.720Z,56.40
2018-04-10T06:21:59.415Z,56.30
2018-04-10T06:24:27.092Z,56.10
2018-04-10T06:26:54.801Z,56.00
2018-04-10T06:29:23.264Z,56.40
2018-04-10T06:31:51.094Z,56.30
2018-04-10T06:34:18.764Z,56.30
2018-04-10T06:36:46.417Z,56.20
2018-04-10T06:39:14.817Z,55.80
2018-04-10T06:41:43.236Z,56.40
2018-04-10T06:44:10.918Z,56.30
2018-04-10T06:46:38.559Z,56.80
2018-04-10T06:49:06.222Z,56.50
2018-04-10T06:51:34.666Z,55.80
2018-04-10T06:54:02.324Z,55.70
2018-04-10T06:56:30.002Z,55.40
2018-04-10T06:58:57.688Z,56.20
2018-04-10T07:01:25.344Z,56.70
2018-04-10T07:03:53.024Z,56.00
2018-04-10T07:06:20.644Z,56.90
2018-04-10T07:08:48.324Z,55.60
2018-04-10T07:11:15.963Z,55.10
2018-04-10T07:13:43.629Z,55.40
2018-04-10T07:16:11.262Z,55.50
2018-04-10T07:18:38.924Z,55.10
2018-04-10T07:21:06.618Z,54.40
2018-04-10T07:23:34.376Z,54.60
2018-04-10T07:26:02.036Z,52.60
2018-04-10T07:28:30.579Z,52.80
2018-04-10T07:30:58.300Z,51.60
2018-04-10T07:33:26.083Z,51.00
2018-04-10T07:35:53.797Z,50.90
2018-04-10T07:38:22.366Z,50.20
2018-04-10T07:40:51.644Z,50.00
2018-04-10T07:43:19.668Z,49.80
2018-04-10T07:45:47.402Z,46.40
2018-04-10T07:48:15.141Z,47.30
2018-04-10T07:50:42.914Z,47.80
2018-04-10T07:53:10.642Z,47.00
2018-04-10T07:55:38.455Z,47.30
2018-04-10T07:58:06.927Z,50.10
2018-04-10T08:00:34.631Z,50.20
2018-04-10T08:03:02.494Z,48.50
2018-04-10T08:05:30.424Z,48.90
2018-04-10T08:07:58.148Z,50.70
2018-04-10T08:10:25.950Z,48.30
2018-04-10T08:12:53.619Z,48.00
2018-04-10T08:15:21.317Z,49.70
2018-04-10T08:17:48.988Z,48.80
2018-04-10T08:20:16.627Z,47.40
2018-04-10T08:22:44.338Z,49.60
2018-04-10T08:25:12.209Z,47.70
2018-04-10T08:27:40.916Z,50.60
2018-04-10T08:30:14.080Z,48.00
2018-04-10T08:32:42.318Z,48.50
2018-04-10T08:37:58.627Z,48.60
2018-04-10T08:40:27.872Z,48.30
2018-04-10T08:42:56.148Z,47.20
2018-04-10T08:45:24.097Z,48.90
2018-04-10T08:47:51.908Z,52.50
2018-04-10T08:50:19.585Z,52.20
2018-04-10T08:52:47.378Z,49.90
2018-04-10T08:55:15.431Z,49.20
2018-04-10T08:57:43.158Z,47.20
2018-04-10T09:00:12.076Z,51.60
2018-04-10T09:02:39.769Z,51.50
2018-04-10T09:05:09.815Z,49.20
2018-04-10T09:07:39.322Z,48.90
2018-04-10T09:10:08.106Z,50.40
2018-04-10T09:12:36.058Z,47.10
2018-04-10T09:15:04.199Z,51.70
2018-04-10T09:17:33.387Z,50.10
2018-04-10T09:20:01.835Z,50.20
2018-04-10T09:22:29.959Z,51.10
2018-04-10T09:24:57.779Z,51.10
2018-04-10T09:27:25.741Z,48.80
2018-04-10T09:29:54.512Z,50.90
2018-04-10T09:32:24.744Z,50.30
2018-04-10T09:34:52.679Z,51.60
2018-04-10T09:37:20.515Z,52.00
2018-04-10T09:39:48.434Z,51.80
2018-04-10T09:42:18.737Z,50.00
2018-04-10T09:44:46.843Z,50.00
2018-04-10T09:47:16.561Z,49.80
2018-04-10T09:49:44.386Z,49.30
2018-04-10T09:52:13.195Z,46.10
2018-04-10T09:54:41.990Z,46.00
2018-04-10T09:57:09.760Z,51.00
2018-04-10T09:59:38.483Z,51.40
2018-04-10T10:02:07.761Z,53.40
2018-04-10T10:04:36.873Z,52.10
2018-04-10T10:07:05.069Z,51.60
2018-04-10T10:09:33.041Z,49.70
2018-04-10T10:12:00.773Z,51.90
2018-04-10T10:14:28.528Z,50.80
2018-04-10T10:16:56.300Z,51.20
2018-04-10T10:19:24.011Z,50.10
2018-04-10T10:21:52.600Z,51.30
2018-04-10T10:24:20.404Z,51.20
2018-04-10T10:26:48.965Z,49.50
2018-04-10T10:29:16.610Z,49.30
2018-04-10T10:31:44.336Z,50.90
2018-04-10T10:34:12.948Z,51.70
2018-04-10T10:36:40.726Z,51.30
2018-04-10T10:39:08.549Z,51.00
2018-04-10T10:41:36.467Z,51.30
2018-04-10T10:44:04.302Z,50.70
2018-04-10T10:46:32.100Z,45.40
2018-04-10T10:49:00.023Z,50.80
2018-04-10T10:51:27.798Z,50.70
2018-04-10T10:53:55.478Z,46.80
2018-04-10T10:56:24.140Z,44.00
2018-04-10T10:58:52.592Z,45.30
2018-04-10T11:01:20.459Z,45.50
2018-04-10T11:03:48.259Z,50.90
2018-04-10T11:06:15.979Z,44.50
2018-04-10T11:08:44.005Z,45.00
2018-04-10T11:11:11.679Z,51.80
2018-04-10T11:13:39.342Z,50.90
2018-04-10T11:16:08.054Z,50.30
2018-04-10T11:18:35.724Z,50.10
2018-04-10T11:21:03.345Z,49.60
2018-04-10T11:23:31.038Z,49.10
2018-04-10T11:25:58.683Z,48.80
2018-04-10T11:28:27.478Z,48.80
2018-04-10T11:30:55.109Z,48.90
2018-04-10T11:33:24.254Z,48.90
2018-04-10T11:35:52.815Z,49.00
2018-04-10T11:38:21.402Z,49.00
2018-04-10T11:40:49.827Z,49.00
2018-04-10T11:43:17.520Z,49.00
2018-04-10T11:45:45.137Z,48.80
2018-04-10T11:48:13.560Z,48.70
2018-04-10T11:50:41.203Z,48.30
2018-04-10T11:53:08.925Z,45.10
2018-04-10T11:55:36.554Z,49.60
2018-04-10T11:58:04.985Z,48.40
2018-04-10T12:00:32.629Z,48.30
2018-04-10T12:03:01.059Z,48.80
2018-04-10T12:05:28.673Z,48.80
2018-04-10T12:07:57.140Z,48.50
2018-04-10T12:10:24.780Z,48.50
2018-04-10T12:12:52.475Z,48.50
2018-04-10T12:15:20.170Z,48.50
2018-04-10T12:17:47.867Z,48.30
2018-04-10T12:20:15.586Z,48.10
2018-04-10T12:22:43.217Z,47.80
2018-04-10T12:25:11.017Z,45.00
2018-04-10T12:27:39.727Z,48.50
2018-04-10T12:30:09.416Z,47.50
2018-04-10T12:32:37.269Z,42.10
2018-04-10T12:35:05.140Z,43.40
2018-04-10T12:37:32.990Z,48.60
2018-04-10T12:42:35.726Z,48.10
2018-04-10T12:45:09.936Z,45.80
2018-04-10T12:47:40.845Z,48.90
2018-04-10T12:50:08.865Z,48.70
2018-04-10T12:52:37.330Z,48.60
2018-04-10T12:55:09.111Z,42.10
2018-04-10T12:57:39.096Z,48.90
2018-04-10T13:00:14.558Z,48.80
2018-04-10T13:02:51.697Z,48.60
2018-04-10T13:05:26.224Z,48.70
2018-04-10T13:07:54.034Z,48.50
2018-04-10T13:10:21.891Z,48.70
2018-04-10T13:13:08.033Z,48.50
2018-04-10T13:15:40.532Z,47.70
2018-04-10T13:20:48.068Z,47.80
2018-04-10T13:23:15.739Z,47.60
2018-04-10T13:28:41.198Z,49.40
2018-04-10T13:31:09.024Z,49.10
2018-04-10T13:33:38.926Z,48.90
2018-04-10T13:36:08.721Z,48.80
2018-04-10T13:41:28.869Z,39.50
2018-04-10T13:43:57.493Z,47.80
2018-04-10T13:46:26.197Z,49.30
2018-04-10T13:48:54.187Z,44.10
2018-04-10T13:51:21.892Z,48.40
2018-04-10T13:53:49.521Z,48.40
2018-04-10T13:56:17.214Z,48.20
2018-04-10T13:58:44.895Z,44.60
2018-04-10T14:01:12.590Z,44.50
2018-04-10T14:03:41.398Z,47.60
2018-04-10T14:06:09.083Z,47.60
2018-04-10T14:08:37.000Z,46.10
2018-04-10T14:11:04.724Z,45.60
2018-04-10T14:13:32.386Z,48.20
2018-04-10T14:16:00.822Z,47.70
2018-04-10T14:18:28.486Z,47.70
2018-04-10T14:20:56.179Z,42.50
2018-04-10T14:23:23.867Z,44.50
2018-04-10T14:25:51.525Z,45.30
2018-04-10T14:28:19.182Z,49.20
2018-04-10T14:30:46.884Z,48.70
2018-04-10T14:33:14.584Z,45.20
2018-04-10T14:35:42.358Z,49.10
2018-04-10T14:38:10.030Z,48.50
2018-04-10T14:40:37.699Z,47.40
2018-04-10T14:43:06.753Z,48.60
2018-04-10T14:45:34.445Z,39.40
2018-04-10T14:48:02.147Z,49.20
2018-04-10T14:50:29.795Z,43.50
2018-04-10T14:52:58.605Z,49.80
2018-04-10T14:55:30.056Z,49.00
2018-04-10T14:57:58.413Z,42.50
2018-04-10T15:00:26.895Z,46.50
2018-04-10T15:02:55.376Z,48.60
2018-04-10T15:05:23.057Z,48.60
2018-04-10T15:07:50.701Z,47.20
2018-04-10T15:10:18.354Z,46.10
2018-04-10T15:12:48.585Z,46.60
2018-04-10T15:15:17.606Z,48.70
2018-04-10T15:17:45.264Z,48.00
2018-04-10T15:20:17.391Z,49.10
2018-04-10T15:22:45.793Z,49.20
2018-04-10T15:25:13.449Z,46.50
2018-04-10T15:27:41.177Z,48.60
2018-04-10T15:30:08.833Z,49.00
2018-04-10T15:32:36.617Z,46.80
2018-04-10T15:35:04.410Z,49.60
2018-04-10T15:37:32.055Z,45.20
2018-04-10T15:40:00.512Z,47.30
2018-04-10T15:42:28.278Z,47.40
2018-04-10T15:44:55.993Z,48.30
2018-04-10T15:47:23.701Z,49.20
2018-04-10T15:49:51.393Z,49.30
2018-04-10T15:52:19.011Z,49.10
2018-04-10T15:54:47.524Z,47.40
2018-04-10T15:57:15.304Z,48.60
2018-04-10T15:59:43.693Z,49.40
2018-04-10T16:02:12.159Z,49.60
2018-04-10T16:04:39.840Z,50.30
2018-04-10T16:07:07.589Z,45.70
2018-04-10T16:09:35.323Z,49.60
2018-04-10T16:12:03.195Z,50.00
2018-04-10T16:14:31.017Z,49.90
2018-04-10T16:16:59.021Z,47.00
2018-04-10T16:19:26.734Z,49.70
2018-04-10T16:21:54.556Z,46.40
2018-04-10T16:24:22.324Z,42.10
2018-04-10T16:26:50.095Z,44.00
2018-04-10T16:29:18.528Z,44.70
2018-04-10T16:31:48.478Z,47.10
2018-04-10T16:34:17.000Z,46.80
2018-04-10T16:36:44.848Z,46.30
2018-04-10T16:39:12.841Z,46.90
2018-04-10T16:41:41.340Z,47.50
2018-04-10T16:44:08.959Z,47.30
2018-04-10T16:46:36.611Z,47.10
2018-04-10T16:49:05.073Z,48.40
2018-04-10T16:51:33.623Z,48.40
2018-04-10T16:54:01.319Z,48.50
2018-04-10T16:56:29.079Z,48.60
2018-04-10T16:58:57.000Z,48.40
2018-04-10T17:01:26.707Z,48.40
2018-04-10T17:03:54.536Z,48.50
2018-04-10T17:06:22.283Z,49.10
2018-04-10T17:08:50.153Z,48.50
2018-04-10T17:11:17.805Z,48.90
2018-04-10T17:13:45.527Z,48.80
2018-04-10T17:16:13.435Z,49.10
2018-04-10T17:18:41.097Z,49.10
2018-04-10T17:21:09.127Z,49.30
2018-04-10T17:23:37.100Z,49.40
2018-04-10T17:26:04.933Z,49.40
2018-04-10T17:28:33.138Z,49.40
2018-04-10T17:31:00.944Z,49.40
2018-04-10T17:33:28.673Z,47.00
2018-04-10T17:35:56.441Z,49.80
2018-04-10T17:38:24.931Z,48.20
2018-04-10T17:40:52.744Z,48.30
2018-04-10T17:43:20.416Z,49.90
2018-04-10T17:46:00.741Z,49.90
2018-04-10T18:12:34.287Z,50.10
2018-04-10T18:15:03.048Z,51.10
2018-04-10T18:17:31.025Z,51.10
2018-04-10T18:19:58.795Z,51.00
2018-04-10T18:22:26.463Z,51.40
2018-04-10T18:24:54.236Z,50.80
2018-04-10T18:27:22.126Z,50.80
2018-04-10T18:29:50.591Z,50.60
2018-04-10T18:32:18.301Z,51.10
2018-04-10T18:34:46.307Z,51.00
2018-04-10T18:37:14.927Z,51.30
2018-04-10T18:39:42.996Z,51.20
2018-04-10T18:42:11.572Z,52.00
2018-04-10T18:44:39.347Z,51.30
2018-04-10T18:47:08.953Z,51.40
2018-04-10T18:49:38.756Z,51.60
2018-04-10T18:52:06.704Z,51.40
2018-04-10T18:54:34.650Z,51.20
2018-04-10T18:57:06.343Z,52.00
2018-04-10T19:02:31.966Z,53.10
2018-04-10T19:04:59.980Z,53.10
2018-04-10T19:07:27.996Z,55.30
2018-04-10T19:09:55.680Z,54.30
2018-04-10T19:12:23.444Z,54.80
2018-04-10T19:14:51.067Z,56.00
2018-04-10T19:17:19.725Z,56.60
2018-04-10T19:19:47.696Z,57.60
2018-04-10T19:22:16.503Z,59.80
2018-04-10T19:24:44.552Z,61.60
2018-04-10T19:27:12.674Z,63.70
2018-04-10T19:29:40.797Z,64.10
2018-04-10T19:32:11.856Z,71.10
2018-04-10T19:34:39.688Z,73.30
2018-04-10T19:37:07.524Z,75.30
2018-04-10T19:39:35.304Z,75.90
2018-04-10T19:42:03.070Z,79.90
2018-04-10T19:44:30.761Z,79.90
2018-04-10T19:46:59.483Z,80.60
2018-04-10T19:49:27.150Z,91.10
2018-04-10T19:51:55.621Z,84.70
2018-04-10T19:54:29.210Z,84.20
2018-04-10T19:59:30.881Z,86.30
2018-04-10T20:01:58.684Z,99.90
2018-04-10T20:04:43.986Z,99.90
2018-04-10T20:07:11.895Z,99.90
2018-04-10T20:09:45.161Z,99.90
2018-04-10T20:12:12.869Z,99.90
2018-04-10T20:14:40.664Z,99.90
2018-04-10T20:17:08.398Z,99.90
2018-04-10T20:19:36.993Z,95.10
2018-04-10T20:22:05.623Z,92.80
2018-04-10T20:24:33.881Z,90.80
2018-04-10T20:29:50.354Z,89.20
2018-04-10T20:32:18.016Z,87.90
2018-04-10T20:34:45.790Z,87.30
2018-04-10T20:37:13.493Z,87.80
2018-04-10T20:39:42.208Z,83.80
2018-04-10T20:42:09.872Z,82.90
2018-04-10T20:44:37.665Z,85.40
2018-04-10T20:47:05.717Z,88.60
2018-04-10T20:49:35.362Z,84.20
2018-04-10T20:52:03.161Z,83.90
2018-04-10T20:54:39.245Z,83.80
2018-04-10T20:57:06.981Z,83.90
2018-04-10T20:59:34.679Z,79.60
2018-04-10T21:02:02.339Z,77.50
2018-04-10T21:04:32.279Z,83.40
2018-04-10T21:07:00.044Z,74.40
2018-04-10T21:09:27.783Z,72.60
2018-04-10T21:11:55.520Z,78.40
2018-04-10T21:14:23.248Z,71.00
2018-04-10T21:16:51.697Z,71.80
2018-04-10T21:19:19.496Z,71.70
2018-04-10T21:21:48.722Z,70.50
2018-04-10T21:24:44.425Z,68.90
2018-04-10T21:27:12.253Z,68.60
2018-04-10T21:29:45.646Z,68.40
2018-04-10T21:32:13.320Z,69.30
2018-04-10T21:34:45.527Z,71.80
2018-04-10T21:37:13.216Z,73.70
2018-04-10T21:39:42.856Z,71.70
2018-04-10T21:42:15.303Z,73.90
2018-04-10T21:44:43.101Z,75.80
2018-04-10T21:47:11.654Z,73.60
2018-04-10T21:49:43.103Z,76.10
2018-04-10T21:52:10.794Z,71.90
2018-04-10T21:54:38.598Z,76.60
2018-04-10T21:57:06.328Z,69.80
2018-04-10T21:59:34.007Z,74.30
2018-04-10T22:02:01.730Z,78.20
2018-04-10T22:04:29.489Z,75.50
2018-04-10T22:06:57.931Z,69.40
2018-04-10T22:09:45.761Z,69.30
2018-04-10T22:12:13.439Z,68.20
2018-04-10T22:14:41.981Z,67.30
2018-04-10T22:17:10.463Z,66.40
2018-04-10T22:19:38.137Z,66.30
2018-04-10T22:22:06.024Z,66.00
2018-04-10T22:24:33.898Z,65.80
2018-04-10T22:27:01.610Z,65.60
2018-04-10T22:29:30.247Z,66.50
2018-04-10T22:31:58.006Z,66.70
2018-04-10T22:34:25.637Z,67.70
2018-04-10T22:36:53.419Z,66.40
2018-04-10T22:39:21.232Z,66.90
2018-04-10T22:41:49.033Z,69.30
2018-04-10T22:44:16.711Z,67.30
2018-04-10T22:46:44.497Z,67.50
2018-04-10T22:49:12.829Z,66.30
2018-04-10T22:51:40.707Z,65.90
2018-04-10T22:54:09.100Z,65.30
2018-04-10T22:56:40.666Z,66.10
2018-04-10T22:59:08.947Z,66.10
2018-04-10T23:01:36.935Z,67.00
2018-04-10T23:04:06.109Z,65.80
2018-04-10T23:06:34.841Z,65.70
2018-04-10T23:09:03.218Z,66.80
2018-04-10T23:11:31.438Z,66.40
2018-04-10T23:13:59.338Z,65.30
2018-04-10T23:16:27.205Z,64.50
2018-04-10T23:18:54.947Z,64.00
2018-04-10T23:21:23.582Z,64.20
2018-04-10T23:23:51.357Z,63.80
2018-04-10T23:26:19.069Z,63.90
2018-04-10T23:28:46.909Z,63.80
2018-04-10T23:31:15.533Z,63.70
2018-04-10T23:33:43.921Z,63.60
2018-04-10T23:36:12.036Z,63.20
2018-04-10T23:38:39.916Z,63.20
2018-04-10T23:41:08.046Z,63.20
2018-04-10T23:43:42.121Z,63.20
2018-04-10T23:46:10.207Z,63.50
2018-04-10T23:48:38.161Z,63.70
2018-04-10T23:51:05.983Z,63.70
2018-04-10T23:53:33.801Z,63.30
2018-04-10T23:56:01.810Z,63.30
2018-04-10T23:58:29.542Z,62.90
